首页
METAR-TAF:

METAR-TAF

机场 :

Fort St. John, 不列颠哥伦比亚, 加拿大

纬度: 56-14N, 经度: 120-44W, 海拔: 695米

当前天气观测

该预报发布于26分钟前的16:35 UTC
风速5节,风向西北
温度 10°C
湿度 87%
气压 1012 hPa
能見度: 96.5公里
多云层高于5000英尺
多云层高于14000英尺
附近有阵雨

METAR: CYXJ 081635Z 32005KT 60SM VCSH BKN050 BKN140 10/08 A2987 RMK SC6AC1 SLP131 DENSITY ALT 2300FT

时间: 10:01 (17:01 UTC)

预报

该预报发布于4小时和23分钟前的12:38 UTC
预报有效从08日的 13点(UTC)到 09日的 01点(UTC)
风速15节,风向西转西南
能見度: 10公里
少量云层高于4000英尺
散云层高于20000英尺
从 08日的 1600点(UTC)
风速15节,风向西,有时为25节阵风
能見度: 10公里
多云层高于6000英尺

TAF: CYXJ 081238Z 0813/0901 24015KT P6SM FEW040 SCT200 FM081600 26015G25KT P6SM BKN060 RMK NXT FCST BY 081900Z

超过4000个机场的气象观测和天气预报(METAR&TAF报告)。

可查询的气象台以黄色和红色小点在地图上表示。

将鼠标移到小点上方,可查看气象台名称。

然后点击查看天气观测和预报。

如需切换地图:点击带黑十字的绿色按钮放大地图;点击带横线的绿色按钮缩小地图;或者点击绿色箭头查看邻近地区的地图。


METAR-TAF: